<?xml version="1.0" encoding="UTF-8" standalone="no" ?>
<gpx xmlns="http://www.topografix.com/GPX/1/1" xmlns:xsi="http://www.w3.org/2001/XMLSchema-instance" xsi:schemaLocation="http://www.topografix.com/GPX/1/1 http://www.topografix.com/GPX/1/1/gpx.xsd" version="1.1" creator="VisuGPX - https://www.visugpx.com">
  <metadata>
    <name>LA BOUCLE DES MERILLES 20 04 20145</name>
    <desc><![CDATA[LA BOUCLE DES MERILLES]]></desc>
  </metadata>
  <trk>
    <name><![CDATA[LA BOUCLE DES MERILLES 20 04 20145_1]]></name>
    <trkseg>
      <trkpt lat="44.84301" lon="0.66806">
        <ele>145</ele>
        <time>2014-04-20T09:29:58.000Z</time>
      </trkpt>
      <trkpt lat="44.84307" lon="0.66817">
        <ele>151</ele>
        <time>2014-04-20T09:30:06.000Z</time>
      </trkpt>
      <trkpt lat="44.84314" lon="0.6683">
        <ele>150</ele>
        <time>2014-04-20T09:30:12.000Z</time>
      </trkpt>
      <trkpt lat="44.84321" lon="0.66838">
        <ele>149</ele>
        <time>2014-04-20T09:30:16.000Z</time>
      </trkpt>
      <trkpt lat="44.84321" lon="0.66838">
        <ele>149</ele>
        <time>2014-04-20T09:30:18.000Z</time>
      </trkpt>
      <trkpt lat="44.84321" lon="0.66838">
        <ele>149</ele>
        <time>2014-04-20T09:30:20.000Z</time>
      </trkpt>
      <trkpt lat="44.8433" lon="0.66844">
        <ele>146</ele>
        <time>2014-04-20T09:30:22.000Z</time>
      </trkpt>
      <trkpt lat="44.8433" lon="0.66844">
        <ele>146</ele>
        <time>2014-04-20T09:30:24.000Z</time>
      </trkpt>
      <trkpt lat="44.8433" lon="0.66844">
        <ele>146</ele>
        <time>2014-04-20T09:30:26.000Z</time>
      </trkpt>
      <trkpt lat="44.8433" lon="0.66844">
        <ele>146</ele>
        <time>2014-04-20T09:30:28.000Z</time>
      </trkpt>
      <trkpt lat="44.84351" lon="0.66849">
        <ele>135</ele>
        <time>2014-04-20T09:30:34.000Z</time>
      </trkpt>
      <trkpt lat="44.84351" lon="0.66849">
        <ele>135</ele>
        <time>2014-04-20T09:30:38.000Z</time>
      </trkpt>
      <trkpt lat="44.84363" lon="0.66851">
        <ele>141</ele>
        <time>2014-04-20T09:30:41.000Z</time>
      </trkpt>
      <trkpt lat="44.84377" lon="0.66853">
        <ele>142</ele>
        <time>2014-04-20T09:30:46.000Z</time>
      </trkpt>
      <trkpt lat="44.84377" lon="0.66853">
        <ele>142</ele>
        <time>2014-04-20T09:30:48.000Z</time>
      </trkpt>
      <trkpt lat="44.84386" lon="0.66852">
        <ele>143</ele>
        <time>2014-04-20T09:30:50.000Z</time>
      </trkpt>
      <trkpt lat="44.84386" lon="0.66852">
        <ele>143</ele>
        <time>2014-04-20T09:30:54.000Z</time>
      </trkpt>
      <trkpt lat="44.84386" lon="0.66852">
        <ele>143</ele>
        <time>2014-04-20T09:30:56.000Z</time>
      </trkpt>
      <trkpt lat="44.84386" lon="0.66852">
        <ele>143</ele>
        <time>2014-04-20T09:30:58.000Z</time>
      </trkpt>
      <trkpt lat="44.84386" lon="0.66852">
        <ele>143</ele>
        <time>2014-04-20T09:31:06.000Z</time>
      </trkpt>
      <trkpt lat="44.8443" lon="0.66843">
        <ele>131</ele>
        <time>2014-04-20T09:31:14.000Z</time>
      </trkpt>
      <trkpt lat="44.84436" lon="0.66843">
        <ele>135</ele>
        <time>2014-04-20T09:31:20.000Z</time>
      </trkpt>
      <trkpt lat="44.84436" lon="0.66843">
        <ele>135</ele>
        <time>2014-04-20T09:31:22.000Z</time>
      </trkpt>
      <trkpt lat="44.84436" lon="0.66843">
        <ele>135</ele>
        <time>2014-04-20T09:31:24.000Z</time>
      </trkpt>
      <trkpt lat="44.84436" lon="0.66843">
        <ele>135</ele>
        <time>2014-04-20T09:31:26.000Z</time>
      </trkpt>
      <trkpt lat="44.84446" lon="0.66843">
        <ele>132</ele>
        <time>2014-04-20T09:31:28.000Z</time>
      </trkpt>
      <trkpt lat="44.84453" lon="0.66843">
        <ele>132</ele>
        <time>2014-04-20T09:31:30.000Z</time>
      </trkpt>
      <trkpt lat="44.84459" lon="0.66844">
        <ele>130</ele>
        <time>2014-04-20T09:31:32.000Z</time>
      </trkpt>
      <trkpt lat="44.84459" lon="0.66844">
        <ele>130</ele>
        <time>2014-04-20T09:31:34.000Z</time>
      </trkpt>
      <trkpt lat="44.84465" lon="0.66844">
        <ele>121</ele>
        <time>2014-04-20T09:31:36.000Z</time>
      </trkpt>
      <trkpt lat="44.8447" lon="0.66843">
        <ele>121</ele>
        <time>2014-04-20T09:31:38.000Z</time>
      </trkpt>
      <trkpt lat="44.8447" lon="0.66843">
        <ele>121</ele>
        <time>2014-04-20T09:31:40.000Z</time>
      </trkpt>
      <trkpt lat="44.8447" lon="0.66843">
        <ele>121</ele>
        <time>2014-04-20T09:31:42.000Z</time>
      </trkpt>
      <trkpt lat="44.8447" lon="0.66843">
        <ele>121</ele>
        <time>2014-04-20T09:31:44.000Z</time>
      </trkpt>
      <trkpt lat="44.8447" lon="0.66843">
        <ele>121</ele>
        <time>2014-04-20T09:31:46.000Z</time>
      </trkpt>
      <trkpt lat="44.8447" lon="0.66843">
        <ele>121</ele>
        <time>2014-04-20T09:31:48.000Z</time>
      </trkpt>
      <trkpt lat="44.84484" lon="0.66841">
        <ele>119</ele>
        <time>2014-04-20T09:31:52.000Z</time>
      </trkpt>
      <trkpt lat="44.84491" lon="0.66839">
        <ele>126</ele>
        <time>2014-04-20T09:31:54.000Z</time>
      </trkpt>
      <trkpt lat="44.84496" lon="0.66839">
        <ele>136</ele>
        <time>2014-04-20T09:31:56.000Z</time>
      </trkpt>
      <trkpt lat="44.84496" lon="0.66839">
        <ele>136</ele>
        <time>2014-04-20T09:31:58.000Z</time>
      </trkpt>
      <trkpt lat="44.84496" lon="0.66839">
        <ele>136</ele>
        <time>2014-04-20T09:32:00.000Z</time>
      </trkpt>
      <trkpt lat="44.84496" lon="0.66839">
        <ele>136</ele>
        <time>2014-04-20T09:32:02.000Z</time>
      </trkpt>
      <trkpt lat="44.84496" lon="0.66839">
        <ele>136</ele>
        <time>2014-04-20T09:32:04.000Z</time>
      </trkpt>
      <trkpt lat="44.84496" lon="0.66839">
        <ele>136</ele>
        <time>2014-04-20T09:32:06.000Z</time>
      </trkpt>
      <trkpt lat="44.8451" lon="0.6684">
        <ele>141</ele>
        <time>2014-04-20T09:32:10.000Z</time>
      </trkpt>
      <trkpt lat="44.84518" lon="0.66839">
        <ele>142</ele>
        <time>2014-04-20T09:32:12.000Z</time>
      </trkpt>
      <trkpt lat="44.84524" lon="0.66837">
        <ele>142</ele>
        <time>2014-04-20T09:32:14.000Z</time>
      </trkpt>
      <trkpt lat="44.84527" lon="0.66833">
        <ele>147</ele>
        <time>2014-04-20T09:32:18.000Z</time>
      </trkpt>
      <trkpt lat="44.84528" lon="0.66825">
        <ele>149</ele>
        <time>2014-04-20T09:32:22.000Z</time>
      </trkpt>
      <trkpt lat="44.84528" lon="0.66817">
        <ele>144</ele>
        <time>2014-04-20T09:32:26.000Z</time>
      </trkpt>
      <trkpt lat="44.84528" lon="0.6681">
        <ele>143</ele>
        <time>2014-04-20T09:32:28.000Z</time>
      </trkpt>
      <trkpt lat="44.84528" lon="0.66803">
        <ele>140</ele>
        <time>2014-04-20T09:32:32.000Z</time>
      </trkpt>
      <trkpt lat="44.84529" lon="0.66796">
        <ele>141</ele>
        <time>2014-04-20T09:32:34.000Z</time>
      </trkpt>
      <trkpt lat="44.84532" lon="0.66791">
        <ele>140</ele>
        <time>2014-04-20T09:32:36.000Z</time>
      </trkpt>
      <trkpt lat="44.84532" lon="0.66791">
        <ele>140</ele>
        <time>2014-04-20T09:32:38.000Z</time>
      </trkpt>
      <trkpt lat="44.84532" lon="0.66791">
        <ele>140</ele>
        <time>2014-04-20T09:32:40.000Z</time>
      </trkpt>
      <trkpt lat="44.84532" lon="0.66791">
        <ele>140</ele>
        <time>2014-04-20T09:32:42.000Z</time>
      </trkpt>
      <trkpt lat="44.84532" lon="0.66791">
        <ele>140</ele>
        <time>2014-04-20T09:32:48.000Z</time>
      </trkpt>
      <trkpt lat="44.84532" lon="0.66791">
        <ele>140</ele>
        <time>2014-04-20T09:32:50.000Z</time>
      </trkpt>
      <trkpt lat="44.84532" lon="0.66791">
        <ele>140</ele>
        <time>2014-04-20T09:32:52.000Z</time>
      </trkpt>
      <trkpt lat="44.84546" lon="0.66783">
        <ele>154</ele>
        <time>2014-04-20T09:32:54.000Z</time>
      </trkpt>
      <trkpt lat="44.84555" lon="0.6678">
        <ele>154</ele>
        <time>2014-04-20T09:32:57.000Z</time>
      </trkpt>
      <trkpt lat="44.84561" lon="0.66779">
        <ele>158</ele>
        <time>2014-04-20T09:32:58.000Z</time>
      </trkpt>
      <trkpt lat="44.84561" lon="0.66779">
        <ele>158</ele>
        <time>2014-04-20T09:33:00.000Z</time>
      </trkpt>
      <trkpt lat="44.84566" lon="0.6678">
        <ele>158</ele>
        <time>2014-04-20T09:33:03.000Z</time>
      </trkpt>
      <trkpt lat="44.84571" lon="0.6678">
        <ele>158</ele>
        <time>2014-04-20T09:33:04.000Z</time>
      </trkpt>
      <trkpt lat="44.84576" lon="0.6678">
        <ele>156</ele>
        <time>2014-04-20T09:33:06.000Z</time>
      </trkpt>
      <trkpt lat="44.84581" lon="0.66782">
        <ele>157</ele>
        <time>2014-04-20T09:33:08.000Z</time>
      </trkpt>
      <trkpt lat="44.84586" lon="0.66782">
        <ele>156</ele>
        <time>2014-04-20T09:33:10.000Z</time>
      </trkpt>
      <trkpt lat="44.84586" lon="0.66782">
        <ele>156</ele>
        <time>2014-04-20T09:33:12.000Z</time>
      </trkpt>
      <trkpt lat="44.846" lon="0.66781">
        <ele>154</ele>
        <time>2014-04-20T09:33:14.000Z</time>
      </trkpt>
      <trkpt lat="44.8461" lon="0.66786">
        <ele>148</ele>
        <time>2014-04-20T09:33:18.000Z</time>
      </trkpt>
      <trkpt lat="44.8461" lon="0.66786">
        <ele>148</ele>
        <time>2014-04-20T09:33:20.000Z</time>
      </trkpt>
      <trkpt lat="44.8461" lon="0.66786">
        <ele>148</ele>
        <time>2014-04-20T09:33:22.000Z</time>
      </trkpt>
      <trkpt lat="44.8461" lon="0.66786">
        <ele>148</ele>
        <time>2014-04-20T09:33:24.000Z</time>
      </trkpt>
      <trkpt lat="44.8461" lon="0.66786">
        <ele>148</ele>
        <time>2014-04-20T09:33:26.000Z</time>
      </trkpt>
      <trkpt lat="44.8461" lon="0.66786">
        <ele>148</ele>
        <time>2014-04-20T09:33:28.000Z</time>
      </trkpt>
      <trkpt lat="44.84627" lon="0.66792">
        <ele>150</ele>
        <time>2014-04-20T09:33:32.000Z</time>
      </trkpt>
      <trkpt lat="44.84627" lon="0.66792">
        <ele>150</ele>
        <time>2014-04-20T09:33:35.000Z</time>
      </trkpt>
      <trkpt lat="44.84627" lon="0.66792">
        <ele>150</ele>
        <time>2014-04-20T09:33:36.000Z</time>
      </trkpt>
      <trkpt lat="44.84627" lon="0.66792">
        <ele>150</ele>
        <time>2014-04-20T09:33:40.000Z</time>
      </trkpt>
      <trkpt lat="44.84642" lon="0.66807">
        <ele>144</ele>
        <time>2014-04-20T09:33:42.000Z</time>
      </trkpt>
      <trkpt lat="44.84649" lon="0.66819">
        <ele>144</ele>
        <time>2014-04-20T09:33:46.000Z</time>
      </trkpt>
      <trkpt lat="44.84649" lon="0.66819">
        <ele>144</ele>
        <time>2014-04-20T09:33:48.000Z</time>
      </trkpt>
      <trkpt lat="44.84649" lon="0.66819">
        <ele>144</ele>
        <time>2014-04-20T09:33:50.000Z</time>
      </trkpt>
      <trkpt lat="44.84649" lon="0.66819">
        <ele>144</ele>
        <time>2014-04-20T09:33:52.000Z</time>
      </trkpt>
      <trkpt lat="44.84658" lon="0.66827">
        <ele>115</ele>
        <time>2014-04-20T09:33:54.000Z</time>
      </trkpt>
      <trkpt lat="44.84658" lon="0.66827">
        <ele>115</ele>
        <time>2014-04-20T09:33:56.000Z</time>
      </trkpt>
      <trkpt lat="44.84658" lon="0.66827">
        <ele>115</ele>
        <time>2014-04-20T09:33:58.000Z</time>
      </trkpt>
      <trkpt lat="44.84663" lon="0.66838">
        <ele>117</ele>
        <time>2014-04-20T09:34:00.000Z</time>
      </trkpt>
      <trkpt lat="44.84663" lon="0.66838">
        <ele>117</ele>
        <time>2014-04-20T09:34:02.000Z</time>
      </trkpt>
      <trkpt lat="44.84663" lon="0.66838">
        <ele>117</ele>
        <time>2014-04-20T09:34:04.000Z</time>
      </trkpt>
      <trkpt lat="44.84674" lon="0.6685">
        <ele>119</ele>
        <time>2014-04-20T09:34:06.000Z</time>
      </trkpt>
      <trkpt lat="44.84674" lon="0.6685">
        <ele>119</ele>
        <time>2014-04-20T09:34:08.000Z</time>
      </trkpt>
      <trkpt lat="44.84674" lon="0.6685">
        <ele>119</ele>
        <time>2014-04-20T09:34:10.000Z</time>
      </trkpt>
      <trkpt lat="44.84674" lon="0.6685">
        <ele>119</ele>
        <time>2014-04-20T09:34:12.000Z</time>
      </trkpt>
      <trkpt lat="44.84688" lon="0.66863">
        <ele>123</ele>
        <time>2014-04-20T09:34:14.000Z</time>
      </trkpt>
      <trkpt lat="44.84688" lon="0.66863">
        <ele>123</ele>
        <time>2014-04-20T09:34:20.000Z</time>
      </trkpt>
      <trkpt lat="44.84705" lon="0.66866">
        <ele>130</ele>
        <time>2014-04-20T09:34:22.000Z</time>
      </trkpt>
      <trkpt lat="44.84716" lon="0.66867">
        <ele>137</ele>
        <time>2014-04-20T09:34:28.000Z</time>
      </trkpt>
      <trkpt lat="44.84716" lon="0.66867">
        <ele>137</ele>
        <time>2014-04-20T09:34:30.000Z</time>
      </trkpt>
      <trkpt lat="44.84727" lon="0.66868">
        <ele>122</ele>
        <time>2014-04-20T09:34:32.000Z</time>
      </trkpt>
      <trkpt lat="44.84727" lon="0.66868">
        <ele>122</ele>
        <time>2014-04-20T09:34:34.000Z</time>
      </trkpt>
      <trkpt lat="44.84727" lon="0.66868">
        <ele>122</ele>
        <time>2014-04-20T09:34:36.000Z</time>
      </trkpt>
      <trkpt lat="44.84727" lon="0.66868">
        <ele>122</ele>
        <time>2014-04-20T09:34:38.000Z</time>
      </trkpt>
      <trkpt lat="44.84727" lon="0.66868">
        <ele>122</ele>
        <time>2014-04-20T09:34:40.000Z</time>
      </trkpt>
      <trkpt lat="44.84727" lon="0.66868">
        <ele>122</ele>
        <time>2014-04-20T09:34:42.000Z</time>
      </trkpt>
      <trkpt lat="44.84727" lon="0.66868">
        <ele>122</ele>
        <time>2014-04-20T09:34:44.000Z</time>
      </trkpt>
      <trkpt lat="44.84727" lon="0.66868">
        <ele>122</ele>
        <time>2014-04-20T09:34:46.000Z</time>
      </trkpt>
      <trkpt lat="44.84727" lon="0.66868">
        <ele>122</ele>
        <time>2014-04-20T09:34:48.000Z</time>
      </trkpt>
      <trkpt lat="44.84737" lon="0.66872">
        <ele>145</ele>
        <time>2014-04-20T09:34:49.000Z</time>
      </trkpt>
      <trkpt lat="44.84743" lon="0.66873">
        <ele>147</ele>
        <time>2014-04-20T09:34:51.000Z</time>
      </trkpt>
      <trkpt lat="44.84749" lon="0.66876">
        <ele>151</ele>
        <time>2014-04-20T09:34:55.000Z</time>
      </trkpt>
      <trkpt lat="44.84749" lon="0.66876">
        <ele>151</ele>
        <time>2014-04-20T09:34:57.000Z</time>
      </trkpt>
      <trkpt lat="44.84749" lon="0.66876">
        <ele>151</ele>
        <time>2014-04-20T09:34:59.000Z</time>
      </trkpt>
      <trkpt lat="44.84754" lon="0.66878">
        <ele>133</ele>
        <time>2014-04-20T09:35:01.000Z</time>
      </trkpt>
      <trkpt lat="44.84761" lon="0.6688">
        <ele>137</ele>
        <time>2014-04-20T09:35:05.000Z</time>
      </trkpt>
      <trkpt lat="44.84766" lon="0.66882">
        <ele>130</ele>
        <time>2014-04-20T09:35:07.000Z</time>
      </trkpt>
      <trkpt lat="44.84771" lon="0.66882">
        <ele>126</ele>
        <time>2014-04-20T09:35:09.000Z</time>
      </trkpt>
      <trkpt lat="44.84776" lon="0.66882">
        <ele>132</ele>
        <time>2014-04-20T09:35:11.000Z</time>
      </trkpt>
      <trkpt lat="44.84781" lon="0.66883">
        <ele>134</ele>
        <time>2014-04-20T09:35:15.000Z</time>
      </trkpt>
      <trkpt lat="44.84786" lon="0.66884">
        <ele>135</ele>
        <time>2014-04-20T09:35:17.000Z</time>
      </trkpt>
      <trkpt lat="44.84791" lon="0.66885">
        <ele>134</ele>
        <time>2014-04-20T09:35:19.000Z</time>
      </trkpt>
      <trkpt lat="44.84791" lon="0.66885">
        <ele>134</ele>
        <time>2014-04-20T09:35:21.000Z</time>
      </trkpt>
      <trkpt lat="44.84791" lon="0.66885">
        <ele>134</ele>
        <time>2014-04-20T09:35:23.000Z</time>
      </trkpt>
      <trkpt lat="44.84791" lon="0.66885">
        <ele>134</ele>
        <time>2014-04-20T09:35:25.000Z</time>
      </trkpt>
      <trkpt lat="44.84791" lon="0.66885">
        <ele>134</ele>
        <time>2014-04-20T09:35:27.000Z</time>
      </trkpt>
      <trkpt lat="44.84804" lon="0.66884">
        <ele>124</ele>
        <time>2014-04-20T09:35:31.000Z</time>
      </trkpt>
      <trkpt lat="44.84811" lon="0.66885">
        <ele>124</ele>
        <time>2014-04-20T09:35:33.000Z</time>
      </trkpt>
      <trkpt lat="44.84816" lon="0.66887">
        <ele>123</ele>
        <time>2014-04-20T09:35:35.000Z</time>
      </trkpt>
      <trkpt lat="44.84816" lon="0.66887">
        <ele>123</ele>
        <time>2014-04-20T09:35:37.000Z</time>
      </trkpt>
      <trkpt lat="44.84816" lon="0.66887">
        <ele>123</ele>
        <time>2014-04-20T09:35:40.000Z</time>
      </trkpt>
      <trkpt lat="44.84816" lon="0.66887">
        <ele>123</ele>
        <time>2014-04-20T09:35:42.000Z</time>
      </trkpt>
      <trkpt lat="44.84816" lon="0.66887">
        <ele>123</ele>
        <time>2014-04-20T09:35:44.000Z</time>
      </trkpt>
      <trkpt lat="44.84816" lon="0.66887">
        <ele>123</ele>
        <time>2014-04-20T09:35:46.000Z</time>
      </trkpt>
      <trkpt lat="44.84816" lon="0.66887">
        <ele>123</ele>
        <time>2014-04-20T09:35:48.000Z</time>
      </trkpt>
      <trkpt lat="44.84816" lon="0.66887">
        <ele>123</ele>
        <time>2014-04-20T09:35:50.000Z</time>
      </trkpt>
      <trkpt lat="44.84837" lon="0.66888">
        <ele>117</ele>
        <time>2014-04-20T09:35:54.000Z</time>
      </trkpt>
      <trkpt lat="44.84849" lon="0.66889">
        <ele>125</ele>
        <time>2014-04-20T09:35:56.000Z</time>
      </trkpt>
      <trkpt lat="44.84859" lon="0.66891">
        <ele>132</ele>
        <time>2014-04-20T09:35:58.000Z</time>
      </trkpt>
      <trkpt lat="44.84865" lon="0.66893">
        <ele>139</ele>
        <time>2014-04-20T09:36:00.000Z</time>
      </trkpt>
      <trkpt lat="44.8487" lon="0.66894">
        <ele>142</ele>
        <time>2014-04-20T09:36:02.000Z</time>
      </trkpt>
      <trkpt lat="44.8488" lon="0.66896">
        <ele>142</ele>
        <time>2014-04-20T09:36:04.000Z</time>
      </trkpt>
      <trkpt lat="44.8488" lon="0.66896">
        <ele>142</ele>
        <time>2014-04-20T09:36:06.000Z</time>
      </trkpt>
      <trkpt lat="44.8488" lon="0.66896">
        <ele>142</ele>
        <time>2014-04-20T09:36:10.000Z</time>
      </trkpt>
      <trkpt lat="44.8488" lon="0.66896">
        <ele>142</ele>
        <time>2014-04-20T09:36:12.000Z</time>
      </trkpt>
      <trkpt lat="44.8488" lon="0.66896">
        <ele>142</ele>
        <time>2014-04-20T09:36:14.000Z</time>
      </trkpt>
      <trkpt lat="44.8488" lon="0.66896">
        <ele>142</ele>
        <time>2014-04-20T09:36:16.000Z</time>
      </trkpt>
      <trkpt lat="44.8488" lon="0.66896">
        <ele>142</ele>
        <time>2014-04-20T09:36:24.000Z</time>
      </trkpt>
      <trkpt lat="44.8488" lon="0.66896">
        <ele>142</ele>
        <time>2014-04-20T09:36:26.000Z</time>
      </trkpt>
      <trkpt lat="44.84906" lon="0.66877">
        <ele>151</ele>
        <time>2014-04-20T09:36:32.000Z</time>
      </trkpt>
      <trkpt lat="44.84902" lon="0.66863">
        <ele>156</ele>
        <time>2014-04-20T09:36:38.000Z</time>
      </trkpt>
      <trkpt lat="44.84902" lon="0.66863">
        <ele>156</ele>
        <time>2014-04-20T09:36:40.000Z</time>
      </trkpt>
      <trkpt lat="44.84902" lon="0.66863">
        <ele>156</ele>
        <time>2014-04-20T09:36:42.000Z</time>
      </trkpt>
      <trkpt lat="44.84898" lon="0.6685">
        <ele>127</ele>
        <time>2014-04-20T09:36:46.000Z</time>
      </trkpt>
      <trkpt lat="44.84898" lon="0.6685">
        <ele>127</ele>
        <time>2014-04-20T09:36:50.000Z</time>
      </trkpt>
      <trkpt lat="44.84898" lon="0.6685">
        <ele>127</ele>
        <time>2014-04-20T09:36:52.000Z</time>
      </trkpt>
      <trkpt lat="44.84891" lon="0.66832">
        <ele>151</ele>
        <time>2014-04-20T09:36:56.000Z</time>
      </trkpt>
      <trkpt lat="44.84888" lon="0.66818">
        <ele>150</ele>
        <time>2014-04-20T09:37:02.000Z</time>
      </trkpt>
      <trkpt lat="44.84885" lon="0.66803">
        <ele>149</ele>
        <time>2014-04-20T09:37:08.000Z</time>
      </trkpt>
      <trkpt lat="44.84879" lon="0.66788">
        <ele>133</ele>
        <time>2014-04-20T09:37:16.000Z</time>
      </trkpt>
      <trkpt lat="44.84879" lon="0.66788">
        <ele>133</ele>
        <time>2014-04-20T09:37:18.000Z</time>
      </trkpt>
      <trkpt lat="44.84874" lon="0.66782">
        <ele>153</ele>
        <time>2014-04-20T09:37:22.000Z</time>
      </trkpt>
      <trkpt lat="44.84874" lon="0.66782">
        <ele>153</ele>
        <time>2014-04-20T09:37:24.000Z</time>
      </trkpt>
      <trkpt lat="44.84874" lon="0.66782">
        <ele>153</ele>
        <time>2014-04-20T09:37:26.000Z</time>
      </trkpt>
      <trkpt lat="44.84874" lon="0.66782">
        <ele>153</ele>
        <time>2014-04-20T09:37:28.000Z</time>
      </trkpt>
      <trkpt lat="44.84868" lon="0.66769">
        <ele>157</ele>
        <time>2014-04-20T09:37:32.000Z</time>
      </trkpt>
      <trkpt lat="44.84866" lon="0.66759">
        <ele>159</ele>
        <time>2014-04-20T09:37:34.000Z</time>
      </trkpt>
      <trkpt lat="44.84865" lon="0.66752">
        <ele>158</ele>
        <time>2014-04-20T09:37:36.000Z</time>
      </trkpt>
      <trkpt lat="44.84865" lon="0.66752">
        <ele>158</ele>
        <time>2014-04-20T09:37:38.000Z</time>
      </trkpt>
      <trkpt lat="44.84865" lon="0.66752">
        <ele>158</ele>
        <time>2014-04-20T09:37:40.000Z</time>
      </trkpt>
      <trkpt lat="44.84865" lon="0.66752">
        <ele>158</ele>
        <time>2014-04-20T09:37:42.000Z</time>
      </trkpt>
      <trkpt lat="44.84865" lon="0.66752">
        <ele>158</ele>
        <time>2014-04-20T09:37:44.000Z</time>
      </trkpt>
      <trkpt lat="44.8486" lon="0.66737">
        <ele>160</ele>
        <time>2014-04-20T09:37:50.000Z</time>
      </trkpt>
      <trkpt lat="44.8486" lon="0.66737">
        <ele>160</ele>
        <time>2014-04-20T09:37:52.000Z</time>
      </trkpt>
      <trkpt lat="44.8486" lon="0.66737">
        <ele>160</ele>
        <time>2014-04-20T09:37:54.000Z</time>
      </trkpt>
      <trkpt lat="44.8486" lon="0.66737">
        <ele>160</ele>
        <time>2014-04-20T09:37:56.000Z</time>
      </trkpt>
      <trkpt lat="44.84853" lon="0.66731">
        <ele>158</ele>
        <time>2014-04-20T09:38:00.000Z</time>
      </trkpt>
      <trkpt lat="44.84849" lon="0.66728">
        <ele>159</ele>
        <time>2014-04-20T09:38:02.000Z</time>
      </trkpt>
      <trkpt lat="44.84849" lon="0.66728">
        <ele>159</ele>
        <time>2014-04-20T09:38:06.000Z</time>
      </trkpt>
      <trkpt lat="44.84849" lon="0.66728">
        <ele>159</ele>
        <time>2014-04-20T09:38:08.000Z</time>
      </trkpt>
      <trkpt lat="44.84849" lon="0.66728">
        <ele>159</ele>
        <time>2014-04-20T09:38:10.000Z</time>
      </trkpt>
      <trkpt lat="44.84844" lon="0.66729">
        <ele>160</ele>
        <time>2014-04-20T09:38:12.000Z</time>
      </trkpt>
      <trkpt lat="44.84847" lon="0.66735">
        <ele>154</ele>
        <time>2014-04-20T09:38:24.000Z</time>
      </trkpt>
      <trkpt lat="44.84853" lon="0.66734">
        <ele>149</ele>
        <time>2014-04-20T09:38:30.000Z</time>
      </trkpt>
      <trkpt lat="44.84858" lon="0.66732">
        <ele>150</ele>
        <time>2014-04-20T09:38:34.000Z</time>
      </trkpt>
      <trkpt lat="44.84858" lon="0.66732">
        <ele>150</ele>
        <time>2014-04-20T09:38:36.000Z</time>
      </trkpt>
      <trkpt lat="44.84858" lon="0.66732">
        <ele>150</ele>
        <time>2014-04-20T09:38:38.000Z</time>
      </trkpt>
      <trkpt lat="44.8486" lon="0.66741">
        <ele>152</ele>
        <time>2014-04-20T09:38:46.000Z</time>
      </trkpt>
      <trkpt lat="44.84862" lon="0.66747">
        <ele>153</ele>
        <time>2014-04-20T09:38:48.000Z</time>
      </trkpt>
      <trkpt lat="44.84862" lon="0.66747">
        <ele>153</ele>
        <time>2014-04-20T09:38:50.000Z</time>
      </trkpt>
      <trkpt lat="44.84863" lon="0.66754">
        <ele>153</ele>
        <time>2014-04-20T09:38:52.000Z</time>
      </trkpt>
      <trkpt lat="44.84865" lon="0.66762">
        <ele>156</ele>
        <time>2014-04-20T09:38:56.000Z</time>
      </trkpt>
      <trkpt lat="44.84865" lon="0.66762">
        <ele>156</ele>
        <time>2014-04-20T09:39:00.000Z</time>
      </trkpt>
      <trkpt lat="44.84865" lon="0.66762">
        <ele>156</ele>
        <time>2014-04-20T09:39:02.000Z</time>
      </trkpt>
      <trkpt lat="44.84865" lon="0.66762">
        <ele>156</ele>
        <time>2014-04-20T09:39:04.000Z</time>
      </trkpt>
      <trkpt lat="44.84869" lon="0.66779">
        <ele>145</ele>
        <time>2014-04-20T09:39:10.000Z</time>
      </trkpt>
      <trkpt lat="44.84869" lon="0.66779">
        <ele>145</ele>
        <time>2014-04-20T09:39:12.000Z</time>
      </trkpt>
      <trkpt lat="44.84869" lon="0.66779">
        <ele>145</ele>
        <time>2014-04-20T09:39:14.000Z</time>
      </trkpt>
      <trkpt lat="44.84869" lon="0.66779">
        <ele>145</ele>
        <time>2014-04-20T09:39:16.000Z</time>
      </trkpt>
      <trkpt lat="44.84869" lon="0.66779">
        <ele>145</ele>
        <time>2014-04-20T09:39:18.000Z</time>
      </trkpt>
      <trkpt lat="44.84869" lon="0.66779">
        <ele>145</ele>
        <time>2014-04-20T09:39:20.000Z</time>
      </trkpt>
      <trkpt lat="44.84877" lon="0.66803">
        <ele>146</ele>
        <time>2014-04-20T09:39:24.000Z</time>
      </trkpt>
      <trkpt lat="44.84881" lon="0.66817">
        <ele>144</ele>
        <time>2014-04-20T09:39:26.000Z</time>
      </trkpt>
      <trkpt lat="44.84884" lon="0.66825">
        <ele>143</ele>
        <time>2014-04-20T09:39:28.000Z</time>
      </trkpt>
      <trkpt lat="44.84887" lon="0.6683">
        <ele>141</ele>
        <time>2014-04-20T09:39:30.000Z</time>
      </trkpt>
      <trkpt lat="44.84887" lon="0.6683">
        <ele>141</ele>
        <time>2014-04-20T09:39:32.000Z</time>
      </trkpt>
      <trkpt lat="44.84887" lon="0.6683">
        <ele>141</ele>
        <time>2014-04-20T09:39:34.000Z</time>
      </trkpt>
      <trkpt lat="44.84887" lon="0.6683">
        <ele>141</ele>
        <time>2014-04-20T09:39:36.000Z</time>
      </trkpt>
      <trkpt lat="44.84887" lon="0.6683">
        <ele>141</ele>
        <time>2014-04-20T09:39:38.000Z</time>
      </trkpt>
      <trkpt lat="44.84887" lon="0.6683">
        <ele>141</ele>
        <time>2014-04-20T09:39:40.000Z</time>
      </trkpt>
      <trkpt lat="44.84887" lon="0.6683">
        <ele>141</ele>
        <time>2014-04-20T09:39:42.000Z</time>
      </trkpt>
      <trkpt lat="44.84899" lon="0.66851">
        <ele>147</ele>
        <time>2014-04-20T09:39:48.000Z</time>
      </trkpt>
      <trkpt lat="44.84905" lon="0.66864">
        <ele>147</ele>
        <time>2014-04-20T09:39:50.000Z</time>
      </trkpt>
      <trkpt lat="44.84909" lon="0.66872">
        <ele>148</ele>
        <time>2014-04-20T09:39:52.000Z</time>
      </trkpt>
      <trkpt lat="44.84911" lon="0.66879">
        <ele>148</ele>
        <time>2014-04-20T09:39:54.000Z</time>
      </trkpt>
      <trkpt lat="44.84914" lon="0.66885">
        <ele>150</ele>
        <time>2014-04-20T09:39:56.000Z</time>
      </trkpt>
      <trkpt lat="44.84921" lon="0.66898">
        <ele>156</ele>
        <time>2014-04-20T09:40:00.000Z</time>
      </trkpt>
      <trkpt lat="44.84921" lon="0.66898">
        <ele>156</ele>
        <time>2014-04-20T09:40:04.000Z</time>
      </trkpt>
      <trkpt lat="44.84921" lon="0.66898">
        <ele>156</ele>
        <time>2014-04-20T09:40:06.000Z</time>
      </trkpt>
      <trkpt lat="44.84921" lon="0.66898">
        <ele>156</ele>
        <time>2014-04-20T09:40:08.000Z</time>
      </trkpt>
      <trkpt lat="44.84921" lon="0.66898">
        <ele>156</ele>
        <time>2014-04-20T09:40:10.000Z</time>
      </trkpt>
      <trkpt lat="44.84931" lon="0.66932">
        <ele>157</ele>
        <time>2014-04-20T09:40:16.000Z</time>
      </trkpt>
      <trkpt lat="44.84931" lon="0.66932">
        <ele>157</ele>
        <time>2014-04-20T09:40:22.000Z</time>
      </trkpt>
      <trkpt lat="44.84931" lon="0.66932">
        <ele>157</ele>
        <time>2014-04-20T09:40:24.000Z</time>
      </trkpt>
      <trkpt lat="44.84931" lon="0.66932">
        <ele>157</ele>
        <time>2014-04-20T09:40:26.000Z</time>
      </trkpt>
      <trkpt lat="44.84946" lon="0.66951">
        <ele>157</ele>
        <time>2014-04-20T09:40:30.000Z</time>
      </trkpt>
      <trkpt lat="44.84958" lon="0.66958">
        <ele>157</ele>
        <time>2014-04-20T09:40:36.000Z</time>
      </trkpt>
      <trkpt lat="44.84958" lon="0.66958">
        <ele>157</ele>
        <time>2014-04-20T09:40:38.000Z</time>
      </trkpt>
      <trkpt lat="44.84958" lon="0.66958">
        <ele>157</ele>
        <time>2014-04-20T09:40:40.000Z</time>
      </trkpt>
      <trkpt lat="44.84958" lon="0.66958">
        <ele>157</ele>
        <time>2014-04-20T09:40:42.000Z</time>
      </trkpt>
      <trkpt lat="44.84958" lon="0.66958">
        <ele>157</ele>
        <time>2014-04-20T09:40:44.000Z</time>
      </trkpt>
      <trkpt lat="44.84958" lon="0.66958">
        <ele>157</ele>
        <time>2014-04-20T09:40:46.000Z</time>
      </trkpt>
      <trkpt lat="44.84958" lon="0.66958">
        <ele>157</ele>
        <time>2014-04-20T09:40:48.000Z</time>
      </trkpt>
      <trkpt lat="44.84958" lon="0.66958">
        <ele>157</ele>
        <time>2014-04-20T09:40:50.000Z</time>
      </trkpt>
      <trkpt lat="44.84975" lon="0.66974">
        <ele>159</ele>
        <time>2014-04-20T09:40:54.000Z</time>
      </trkpt>
      <trkpt lat="44.84983" lon="0.66983">
        <ele>161</ele>
        <time>2014-04-20T09:41:00.000Z</time>
      </trkpt>
      <trkpt lat="44.84983" lon="0.66983">
        <ele>161</ele>
        <time>2014-04-20T09:41:02.000Z</time>
      </trkpt>
      <trkpt lat="44.84983" lon="0.66983">
        <ele>161</ele>
        <time>2014-04-20T09:41:04.000Z</time>
      </trkpt>
      <trkpt lat="44.84983" lon="0.66983">
        <ele>161</ele>
        <time>2014-04-20T09:41:08.000Z</time>
      </trkpt>
      <trkpt lat="44.84991" lon="0.66995">
        <ele>166</ele>
        <time>2014-04-20T09:41:14.000Z</time>
      </trkpt>
      <trkpt lat="44.84995" lon="0.67005">
        <ele>160</ele>
        <time>2014-04-20T09:41:16.000Z</time>
      </trkpt>
      <trkpt lat="44.84998" lon="0.67013">
        <ele>161</ele>
        <time>2014-04-20T09:41:18.000Z</time>
      </trkpt>
      <trkpt lat="44.85003" lon="0.67019">
        <ele>160</ele>
        <time>2014-04-20T09:41:20.000Z</time>
      </trkpt>
      <trkpt lat="44.85006" lon="0.67024">
        <ele>161</ele>
        <time>2014-04-20T09:41:22.000Z</time>
      </trkpt>
      <trkpt lat="44.85006" lon="0.67024">
        <ele>161</ele>
        <time>2014-04-20T09:41:24.000Z</time>
      </trkpt>
      <trkpt lat="44.85006" lon="0.67024">
        <ele>161</ele>
        <time>2014-04-20T09:41:26.000Z</time>
      </trkpt>
      <trkpt lat="44.85021" lon="0.67049">
        <ele>168</ele>
        <time>2014-04-20T09:41:36.000Z</time>
      </trkpt>
      <trkpt lat="44.85027" lon="0.6706">
        <ele>172</ele>
        <time>2014-04-20T09:41:42.000Z</time>
      </trkpt>
      <trkpt lat="44.85032" lon="0.67075">
        <ele>172</ele>
        <time>2014-04-20T09:41:50.000Z</time>
      </trkpt>
      <trkpt lat="44.85032" lon="0.67075">
        <ele>172</ele>
        <time>2014-04-20T09:41:52.000Z</time>
      </trkpt>
      <trkpt lat="44.85032" lon="0.67075">
        <ele>172</ele>
        <time>2014-04-20T09:41:54.000Z</time>
      </trkpt>
      <trkpt lat="44.85032" lon="0.67075">
        <ele>172</ele>
        <time>2014-04-20T09:42:00.000Z</time>
      </trkpt>
      <trkpt lat="44.85032" lon="0.67075">
        <ele>172</ele>
        <time>2014-04-20T09:42:02.000Z</time>
      </trkpt>
      <trkpt lat="44.85032" lon="0.67075">
        <ele>172</ele>
        <time>2014-04-20T09:42:04.000Z</time>
      </trkpt>
      <trkpt lat="44.85032" lon="0.67075">
        <ele>172</ele>
        <time>2014-04-20T09:42:06.000Z</time>
      </trkpt>
      <trkpt lat="44.85034" lon="0.67102">
        <ele>177</ele>
        <time>2014-04-20T09:42:10.000Z</time>
      </trkpt>
      <trkpt lat="44.85027" lon="0.67115">
        <ele>179</ele>
        <time>2014-04-20T09:42:14.000Z</time>
      </trkpt>
      <trkpt lat="44.85027" lon="0.67115">
        <ele>179</ele>
        <time>2014-04-20T09:42:20.000Z</time>
      </trkpt>
      <trkpt lat="44.85027" lon="0.67115">
        <ele>179</ele>
        <time>2014-04-20T09:42:22.000Z</time>
      </trkpt>
      <trkpt lat="44.85027" lon="0.67115">
        <ele>179</ele>
        <time>2014-04-20T09:42:26.000Z</time>
      </trkpt>
      <trkpt lat="44.85027" lon="0.67115">
        <ele>179</ele>
        <time>2014-04-20T09:42:28.000Z</time>
      </trkpt>
      <trkpt lat="44.85024" lon="0.67155">
        <ele>170</ele>
        <time>2014-04-20T09:42:32.000Z</time>
      </trkpt>
      <trkpt lat="44.85024" lon="0.67155">
        <ele>170</ele>
        <time>2014-04-20T09:42:36.000Z</time>
      </trkpt>
      <trkpt lat="44.85024" lon="0.67155">
        <ele>170</ele>
        <time>2014-04-20T09:42:38.000Z</time>
      </trkpt>
      <trkpt lat="44.85025" lon="0.67163">
        <ele>173</ele>
        <time>2014-04-20T09:42:42.000Z</time>
      </trkpt>
      <trkpt lat="44.85025" lon="0.67163">
        <ele>173</ele>
        <time>2014-04-20T09:42:44.000Z</time>
      </trkpt>
      <trkpt lat="44.85025" lon="0.67171">
        <ele>174</ele>
        <time>2014-04-20T09:42:46.000Z</time>
      </trkpt>
      <trkpt lat="44.85023" lon="0.67177">
        <ele>172</ele>
        <time>2014-04-20T09:42:50.000Z</time>
      </trkpt>
      <trkpt lat="44.85023" lon="0.67177">
        <ele>172</ele>
        <time>2014-04-20T09:42:52.000Z</time>
      </trkpt>
      <trkpt lat="44.85023" lon="0.67177">
        <ele>172</ele>
        <time>2014-04-20T09:42:54.000Z</time>
      </trkpt>
      <trkpt lat="44.85021" lon="0.67188">
        <ele>167</ele>
        <time>2014-04-20T09:42:58.000Z</time>
      </trkpt>
      <trkpt lat="44.8502" lon="0.67195">
        <ele>169</ele>
        <time>2014-04-20T09:43:00.000Z</time>
      </trkpt>
      <trkpt lat="44.8502" lon="0.67195">
        <ele>169</ele>
        <time>2014-04-20T09:43:02.000Z</time>
      </trkpt>
      <trkpt lat="44.85018" lon="0.67202">
        <ele>170</ele>
        <time>2014-04-20T09:43:04.000Z</time>
      </trkpt>
      <trkpt lat="44.85015" lon="0.67207">
        <ele>172</ele>
        <time>2014-04-20T09:43:06.000Z</time>
      </trkpt>
      <trkpt lat="44.85012" lon="0.67212">
        <ele>174</ele>
        <time>2014-04-20T09:43:10.000Z</time>
      </trkpt>
      <trkpt lat="44.85012" lon="0.67212">
        <ele>174</ele>
        <time>2014-04-20T09:43:12.000Z</time>
      </trkpt>
      <trkpt lat="44.85012" lon="0.67212">
        <ele>174</ele>
        <time>2014-04-20T09:43:14.000Z</time>
      </trkpt>
      <trkpt lat="44.85012" lon="0.67212">
        <ele>174</ele>
        <time>2014-04-20T09:43:16.000Z</time>
      </trkpt>
      <trkpt lat="44.85006" lon="0.67223">
        <ele>172</ele>
        <time>2014-04-20T09:43:20.000Z</time>
      </trkpt>
      <trkpt lat="44.85001" lon="0.6723">
        <ele>171</ele>
        <time>2014-04-20T09:43:22.000Z</time>
      </trkpt>
      <trkpt lat="44.85001" lon="0.6723">
        <ele>171</ele>
        <time>2014-04-20T09:43:24.000Z</time>
      </trkpt>
      <trkpt lat="44.85001" lon="0.6723">
        <ele>171</ele>
        <time>2014-04-20T09:43:26.000Z</time>
      </trkpt>
      <trkpt lat="44.85001" lon="0.6723">
        <ele>171</ele>
        <time>2014-04-20T09:43:28.000Z</time>
      </trkpt>
      <trkpt lat="44.85001" lon="0.6723">
        <ele>171</ele>
        <time>2014-04-20T09:43:32.000Z</time>
      </trkpt>
      <trkpt lat="44.8499" lon="0.67243">
        <ele>172</ele>
        <time>2014-04-20T09:43:36.000Z</time>
      </trkpt>
      <trkpt lat="44.84983" lon="0.67251">
        <ele>174</ele>
        <time>2014-04-20T09:43:38.000Z</time>
      </trkpt>
      <trkpt lat="44.84978" lon="0.67256">
        <ele>173</ele>
        <time>2014-04-20T09:43:40.000Z</time>
      </trkpt>
      <trkpt lat="44.84978" lon="0.67256">
        <ele>173</ele>
        <time>2014-04-20T09:43:42.000Z</time>
      </trkpt>
      <trkpt lat="44.84978" lon="0.67256">
        <ele>173</ele>
        <time>2014-04-20T09:43:44.000Z</time>
      </trkpt>
      <trkpt lat="44.84978" lon="0.67256">
        <ele>173</ele>
        <time>2014-04-20T09:43:46.000Z</time>
      </trkpt>
      <trkpt lat="44.84978" lon="0.67256">
        <ele>173</ele>
        <time>2014-04-20T09:43:48.000Z</time>
      </trkpt>
      <trkpt lat="44.84978" lon="0.67256">
        <ele>173</ele>
        <time>2014-04-20T09:43:50.000Z</time>
      </trkpt>
      <trkpt lat="44.84978" lon="0.67256">
        <ele>173</ele>
        <time>2014-04-20T09:43:52.000Z</time>
      </trkpt>
      <trkpt lat="44.84978" lon="0.67256">
        <ele>173</ele>
        <time>2014-04-20T09:43:54.000Z</time>
      </trkpt>
      <trkpt lat="44.84978" lon="0.67256">
        <ele>173</ele>
        <time>2014-04-20T09:43:56.000Z</time>
      </trkpt>
      <trkpt lat="44.84978" lon="0.67256">
        <ele>173</ele>
        <time>2014-04-20T09:43:58.000Z</time>
      </trkpt>
      <trkpt lat="44.84972" lon="0.67274">
        <ele>172</ele>
        <time>2014-04-20T09:44:04.000Z</time>
      </trkpt>
      <trkpt lat="44.84969" lon="0.67285">
        <ele>174</ele>
        <time>2014-04-20T09:44:06.000Z</time>
      </trkpt>
      <trkpt lat="44.84969" lon="0.67292">
        <ele>173</ele>
        <time>2014-04-20T09:44:08.000Z</time>
      </trkpt>
      <trkpt lat="44.84969" lon="0.67299">
        <ele>174</ele>
        <time>2014-04-20T09:44:12.000Z</time>
      </trkpt>
      <trkpt lat="44.84969" lon="0.67306">
        <ele>176</ele>
        <time>2014-04-20T09:44:16.000Z</time>
      </trkpt>
      <trkpt lat="44.84969" lon="0.67306">
        <ele>176</ele>
        <time>2014-04-20T09:44:18.000Z</time>
      </trkpt>
      <trkpt lat="44.84969" lon="0.67306">
        <ele>176</ele>
        <time>2014-04-20T09:44:20.000Z</time>
      </trkpt>
      <trkpt lat="44.84969" lon="0.67306">
        <ele>176</ele>
        <time>2014-04-20T09:44:24.000Z</time>
      </trkpt>
      <trkpt lat="44.84969" lon="0.67306">
        <ele>176</ele>
        <time>2014-04-20T09:44:26.000Z</time>
      </trkpt>
      <trkpt lat="44.84969" lon="0.67306">
        <ele>176</ele>
        <time>2014-04-20T09:44:28.000Z</time>
      </trkpt>
      <trkpt lat="44.8496" lon="0.67315">
        <ele>177</ele>
        <time>2014-04-20T09:44:31.000Z</time>
      </trkpt>
      <trkpt lat="44.84953" lon="0.67319">
        <ele>178</ele>
        <time>2014-04-20T09:44:33.000Z</time>
      </trkpt>
      <trkpt lat="44.84953" lon="0.67319">
        <ele>178</ele>
        <time>2014-04-20T09:44:37.000Z</time>
      </trkpt>
      <trkpt lat="44.84953" lon="0.67319">
        <ele>178</ele>
        <time>2014-04-20T09:44:39.000Z</time>
      </trkpt>
      <trkpt lat="44.84953" lon="0.67319">
        <ele>178</ele>
        <time>2014-04-20T09:44:41.000Z</time>
      </trkpt>
      <trkpt lat="44.84942" lon="0.67321">
        <ele>179</ele>
        <time>2014-04-20T09:44:45.000Z</time>
      </trkpt>
      <trkpt lat="44.84935" lon="0.67321">
        <ele>181</ele>
        <time>2014-04-20T09:44:47.000Z</time>
      </trkpt>
      <trkpt lat="44.84929" lon="0.67321">
        <ele>178</ele>
        <time>2014-04-20T09:44:49.000Z</time>
      </trkpt>
      <trkpt lat="44.84924" lon="0.67322">
        <ele>178</ele>
        <time>2014-04-20T09:44:51.000Z</time>
      </trkpt>
      <trkpt lat="44.84924" lon="0.67322">
        <ele>178</ele>
        <time>2014-04-20T09:44:53.000Z</time>
      </trkpt>
      <trkpt lat="44.84924" lon="0.67322">
        <ele>178</ele>
        <time>2014-04-20T09:44:55.000Z</time>
      </trkpt>
      <trkpt lat="44.84913" lon="0.67323">
        <ele>179</ele>
        <time>2014-04-20T09:45:03.000Z</time>
      </trkpt>
      <trkpt lat="44.84906" lon="0.67325">
        <ele>177</ele>
        <time>2014-04-20T09:45:05.000Z</time>
      </trkpt>
      <trkpt lat="44.84901" lon="0.67326">
        <ele>179</ele>
        <time>2014-04-20T09:45:07.000Z</time>
      </trkpt>
      <trkpt lat="44.84901" lon="0.67326">
        <ele>179</ele>
        <time>2014-04-20T09:45:09.000Z</time>
      </trkpt>
      <trkpt lat="44.84896" lon="0.67327">
        <ele>181</ele>
        <time>2014-04-20T09:45:11.000Z</time>
      </trkpt>
      <trkpt lat="44.84891" lon="0.6733">
        <ele>183</ele>
        <time>2014-04-20T09:45:15.000Z</time>
      </trkpt>
      <trkpt lat="44.84887" lon="0.67336">
        <ele>179</ele>
        <time>2014-04-20T09:45:17.000Z</time>
      </trkpt>
      <trkpt lat="44.84885" lon="0.67343">
        <ele>180</ele>
        <time>2014-04-20T09:45:21.000Z</time>
      </trkpt>
      <trkpt lat="44.84882" lon="0.67348">
        <ele>178</ele>
        <time>2014-04-20T09:45:23.000Z</time>
      </trkpt>
      <trkpt lat="44.84882" lon="0.67348">
        <ele>178</ele>
        <time>2014-04-20T09:45:25.000Z</time>
      </trkpt>
      <trkpt lat="44.84882" lon="0.67348">
        <ele>178</ele>
        <time>2014-04-20T09:45:27.000Z</time>
      </trkpt>
      <trkpt lat="44.84882" lon="0.67348">
        <ele>178</ele>
        <time>2014-04-20T09:45:29.000Z</time>
      </trkpt>
      <trkpt lat="44.84882" lon="0.67348">
        <ele>178</ele>
        <time>2014-04-20T09:45:31.000Z</time>
      </trkpt>
      <trkpt lat="44.84882" lon="0.67348">
        <ele>178</ele>
        <time>2014-04-20T09:45:33.000Z</time>
      </trkpt>
      <trkpt lat="44.84882" lon="0.67348">
        <ele>178</ele>
        <time>2014-04-20T09:45:41.000Z</time>
      </trkpt>
      <trkpt lat="44.84882" lon="0.67348">
        <ele>178</ele>
        <time>2014-04-20T09:45:43.000Z</time>
      </trkpt>
      <trkpt lat="44.84864" lon="0.6736">
        <ele>170</ele>
        <time>2014-04-20T09:45:49.000Z</time>
      </trkpt>
      <trkpt lat="44.84855" lon="0.67366">
        <ele>171</ele>
        <time>2014-04-20T09:45:51.000Z</time>
      </trkpt>
      <trkpt lat="44.84848" lon="0.67369">
        <ele>170</ele>
        <time>2014-04-20T09:45:53.000Z</time>
      </trkpt>
      <trkpt lat="44.84843" lon="0.67371">
        <ele>169</ele>
        <time>2014-04-20T09:45:55.000Z</time>
      </trkpt>
      <trkpt lat="44.84836" lon="0.6737">
        <ele>168</ele>
        <time>2014-04-20T09:45:59.000Z</time>
      </trkpt>
      <trkpt lat="44.84832" lon="0.6737">
        <ele>170</ele>
        <time>2014-04-20T09:46:02.000Z</time>
      </trkpt>
      <trkpt lat="44.84832" lon="0.6737">
        <ele>170</ele>
        <time>2014-04-20T09:46:04.000Z</time>
      </trkpt>
      <trkpt lat="44.84832" lon="0.6737">
        <ele>170</ele>
        <time>2014-04-20T09:46:06.000Z</time>
      </trkpt>
      <trkpt lat="44.84832" lon="0.6737">
        <ele>170</ele>
        <time>2014-04-20T09:46:08.000Z</time>
      </trkpt>
      <trkpt lat="44.84832" lon="0.6737">
        <ele>170</ele>
        <time>2014-04-20T09:46:12.000Z</time>
      </trkpt>
      <trkpt lat="44.84832" lon="0.6737">
        <ele>170</ele>
        <time>2014-04-20T09:46:14.000Z</time>
      </trkpt>
      <trkpt lat="44.84832" lon="0.6737">
        <ele>170</ele>
        <time>2014-04-20T09:46:16.000Z</time>
      </trkpt>
      <trkpt lat="44.84832" lon="0.6737">
        <ele>170</ele>
        <time>2014-04-20T09:46:18.000Z</time>
      </trkpt>
      <trkpt lat="44.84832" lon="0.6737">
        <ele>170</ele>
        <time>2014-04-20T09:46:20.000Z</time>
      </trkpt>
      <trkpt lat="44.84832" lon="0.6737">
        <ele>170</ele>
        <time>2014-04-20T09:46:26.000Z</time>
      </trkpt>
      <trkpt lat="44.84832" lon="0.6737">
        <ele>170</ele>
        <time>2014-04-20T09:46:28.000Z</time>
      </trkpt>
      <trkpt lat="44.84832" lon="0.6737">
        <ele>170</ele>
        <time>2014-04-20T09:46:30.000Z</time>
      </trkpt>
      <trkpt lat="44.84832" lon="0.6737">
        <ele>170</ele>
        <time>2014-04-20T09:46:32.000Z</time>
      </trkpt>
      <trkpt lat="44.84832" lon="0.6737">
        <ele>170</ele>
        <time>2014-04-20T09:46:34.000Z</time>
      </trkpt>
      <trkpt lat="44.84803" lon="0.67363">
        <ele>168</ele>
        <time>2014-04-20T09:46:36.000Z</time>
      </trkpt>
      <trkpt lat="44.84787" lon="0.67358">
        <ele>168</ele>
        <time>2014-04-20T09:46:38.000Z</time>
      </trkpt>
      <trkpt lat="44.84779" lon="0.67355">
        <ele>168</ele>
        <time>2014-04-20T09:46:40.000Z</time>
      </trkpt>
      <trkpt lat="44.84773" lon="0.67352">
        <ele>171</ele>
        <time>2014-04-20T09:46:42.000Z</time>
      </trkpt>
      <trkpt lat="44.84769" lon="0.67349">
        <ele>172</ele>
        <time>2014-04-20T09:46:44.000Z</time>
      </trkpt>
      <trkpt lat="44.8476" lon="0.67345">
        <ele>173</ele>
        <time>2014-04-20T09:46:48.000Z</time>
      </trkpt>
      <trkpt lat="44.8476" lon="0.67345">
        <ele>173</ele>
        <time>2014-04-20T09:46:50.000Z</time>
      </trkpt>
      <trkpt lat="44.84751" lon="0.67337">
        <ele>172</ele>
        <time>2014-04-20T09:46:58.000Z</time>
      </trkpt>
      <trkpt lat="44.84751" lon="0.67337">
        <ele>172</ele>
        <time>2014-04-20T09:47:00.000Z</time>
      </trkpt>
      <trkpt lat="44.84751" lon="0.67337">
        <ele>172</ele>
        <time>2014-04-20T09:47:02.000Z</time>
      </trkpt>
      <trkpt lat="44.84751" lon="0.67337">
        <ele>172</ele>
        <time>2014-04-20T09:47:04.000Z</time>
      </trkpt>
      <trkpt lat="44.84751" lon="0.67337">
        <ele>172</ele>
        <time>2014-04-20T09:47:06.000Z</time>
      </trkpt>
      <trkpt lat="44.84724" lon="0.67321">
        <ele>166</ele>
        <time>2014-04-20T09:47:14.000Z</time>
      </trkpt>
      <trkpt lat="44.84715" lon="0.67317">
        <ele>166</ele>
        <time>2014-04-20T09:47:18.000Z</time>
      </trkpt>
      <trkpt lat="44.84715" lon="0.67317">
        <ele>166</ele>
        <time>2014-04-20T09:47:20.000Z</time>
      </trkpt>
      <trkpt lat="44.84715" lon="0.67317">
        <ele>166</ele>
        <time>2014-04-20T09:47:22.000Z</time>
      </trkpt>
      <trkpt lat="44.84715" lon="0.67317">
        <ele>166</ele>
        <time>2014-04-20T09:47:24.000Z</time>
      </trkpt>
      <trkpt lat="44.84715" lon="0.67317">
        <ele>166</ele>
        <time>2014-04-20T09:47:26.000Z</time>
      </trkpt>
      <trkpt lat="44.84715" lon="0.67317">
        <ele>166</ele>
        <time>2014-04-20T09:47:28.000Z</time>
      </trkpt>
      <trkpt lat="44.84715" lon="0.67317">
        <ele>166</ele>
        <time>2014-04-20T09:47:30.000Z</time>
      </trkpt>
      <trkpt lat="44.8469" lon="0.67289">
        <ele>156</ele>
        <time>2014-04-20T09:47:32.000Z</time>
      </trkpt>
      <trkpt lat="44.84682" lon="0.67282">
        <ele>162</ele>
        <time>2014-04-20T09:47:36.000Z</time>
      </trkpt>
      <trkpt lat="44.84682" lon="0.67282">
        <ele>162</ele>
        <time>2014-04-20T09:47:38.000Z</time>
      </trkpt>
      <trkpt lat="44.84682" lon="0.67282">
        <ele>162</ele>
        <time>2014-04-20T09:47:40.000Z</time>
      </trkpt>
      <trkpt lat="44.8467" lon="0.67282">
        <ele>163</ele>
        <time>2014-04-20T09:47:46.000Z</time>
      </trkpt>
      <trkpt lat="44.8466" lon="0.67278">
        <ele>167</ele>
        <time>2014-04-20T09:47:50.000Z</time>
      </trkpt>
      <trkpt lat="44.84651" lon="0.67274">
        <ele>165</ele>
        <time>2014-04-20T09:47:54.000Z</time>
      </trkpt>
      <trkpt lat="44.84651" lon="0.67274">
        <ele>165</ele>
        <time>2014-04-20T09:47:56.000Z</time>
      </trkpt>
      <trkpt lat="44.84651" lon="0.67274">
        <ele>165</ele>
        <time>2014-04-20T09:47:58.000Z</time>
      </trkpt>
      <trkpt lat="44.84651" lon="0.67274">
        <ele>165</ele>
        <time>2014-04-20T09:48:00.000Z</time>
      </trkpt>
      <trkpt lat="44.84651" lon="0.67274">
        <ele>165</ele>
        <time>2014-04-20T09:48:02.000Z</time>
      </trkpt>
      <trkpt lat="44.84651" lon="0.67274">
        <ele>165</ele>
        <time>2014-04-20T09:48:04.000Z</time>
      </trkpt>
      <trkpt lat="44.84651" lon="0.67274">
        <ele>165</ele>
        <time>2014-04-20T09:48:06.000Z</time>
      </trkpt>
      <trkpt lat="44.84639" lon="0.67274">
        <ele>159</ele>
        <time>2014-04-20T09:48:10.000Z</time>
      </trkpt>
      <trkpt lat="44.84631" lon="0.67274">
        <ele>161</ele>
        <time>2014-04-20T09:48:12.000Z</time>
      </trkpt>
      <trkpt lat="44.84627" lon="0.67275">
        <ele>161</ele>
        <time>2014-04-20T09:48:14.000Z</time>
      </trkpt>
      <trkpt lat="44.84627" lon="0.67275">
        <ele>161</ele>
        <time>2014-04-20T09:48:16.000Z</time>
      </trkpt>
      <trkpt lat="44.84627" lon="0.67275">
        <ele>161</ele>
        <time>2014-04-20T09:48:18.000Z</time>
      </trkpt>
      <trkpt lat="44.84618" lon="0.67272">
        <ele>163</ele>
        <time>2014-04-20T09:48:22.000Z</time>
      </trkpt>
      <trkpt lat="44.84618" lon="0.67272">
        <ele>163</ele>
        <time>2014-04-20T09:48:24.000Z</time>
      </trkpt>
      <trkpt lat="44.8461" lon="0.67268">
        <ele>159</ele>
        <time>2014-04-20T09:48:30.000Z</time>
      </trkpt>
      <trkpt lat="44.84607" lon="0.67263">
        <ele>158</ele>
        <time>2014-04-20T09:48:32.000Z</time>
      </trkpt>
      <trkpt lat="44.84604" lon="0.67258">
        <ele>156</ele>
        <time>2014-04-20T09:48:34.000Z</time>
      </trkpt>
      <trkpt lat="44.84601" lon="0.67251">
        <ele>153</ele>
        <time>2014-04-20T09:48:38.000Z</time>
      </trkpt>
      <trkpt lat="44.84599" lon="0.67245">
        <ele>149</ele>
        <time>2014-04-20T09:48:40.000Z</time>
      </trkpt>
      <trkpt lat="44.84597" lon="0.67234">
        <ele>152</ele>
        <time>2014-04-20T09:48:44.000Z</time>
      </trkpt>
      <trkpt lat="44.84595" lon="0.67225">
        <ele>153</ele>
        <time>2014-04-20T09:48:46.000Z</time>
      </trkpt>
      <trkpt lat="44.84594" lon="0.67217">
        <ele>155</ele>
        <time>2014-04-20T09:48:48.000Z</time>
      </trkpt>
      <trkpt lat="44.84591" lon="0.6721">
        <ele>156</ele>
        <time>2014-04-20T09:48:50.000Z</time>
      </trkpt>
      <trkpt lat="44.84591" lon="0.6721">
        <ele>156</ele>
        <time>2014-04-20T09:48:52.000Z</time>
      </trkpt>
      <trkpt lat="44.84589" lon="0.67198">
        <ele>160</ele>
        <time>2014-04-20T09:48:56.000Z</time>
      </trkpt>
      <trkpt lat="44.84588" lon="0.67189">
        <ele>161</ele>
        <time>2014-04-20T09:48:58.000Z</time>
      </trkpt>
      <trkpt lat="44.84587" lon="0.67182">
        <ele>160</ele>
        <time>2014-04-20T09:49:00.000Z</time>
      </trkpt>
      <trkpt lat="44.84587" lon="0.67182">
        <ele>160</ele>
        <time>2014-04-20T09:49:02.000Z</time>
      </trkpt>
      <trkpt lat="44.84587" lon="0.67182">
        <ele>160</ele>
        <time>2014-04-20T09:49:04.000Z</time>
      </trkpt>
      <trkpt lat="44.84587" lon="0.67182">
        <ele>160</ele>
        <time>2014-04-20T09:49:06.000Z</time>
      </trkpt>
      <trkpt lat="44.84587" lon="0.67182">
        <ele>160</ele>
        <time>2014-04-20T09:49:08.000Z</time>
      </trkpt>
      <trkpt lat="44.84587" lon="0.67182">
        <ele>160</ele>
        <time>2014-04-20T09:49:10.000Z</time>
      </trkpt>
      <trkpt lat="44.84582" lon="0.6716">
        <ele>166</ele>
        <time>2014-04-20T09:49:16.000Z</time>
      </trkpt>
      <trkpt lat="44.84579" lon="0.67148">
        <ele>164</ele>
        <time>2014-04-20T09:49:18.000Z</time>
      </trkpt>
      <trkpt lat="44.84579" lon="0.67148">
        <ele>164</ele>
        <time>2014-04-20T09:49:20.000Z</time>
      </trkpt>
      <trkpt lat="44.84579" lon="0.67148">
        <ele>164</ele>
        <time>2014-04-20T09:49:22.000Z</time>
      </trkpt>
      <trkpt lat="44.84579" lon="0.67148">
        <ele>164</ele>
        <time>2014-04-20T09:49:24.000Z</time>
      </trkpt>
      <trkpt lat="44.84579" lon="0.67148">
        <ele>164</ele>
        <time>2014-04-20T09:49:26.000Z</time>
      </trkpt>
      <trkpt lat="44.84577" lon="0.67133">
        <ele>170</ele>
        <time>2014-04-20T09:49:28.000Z</time>
      </trkpt>
      <trkpt lat="44.84576" lon="0.67123">
        <ele>169</ele>
        <time>2014-04-20T09:49:30.000Z</time>
      </trkpt>
      <trkpt lat="44.84578" lon="0.67117">
        <ele>170</ele>
        <time>2014-04-20T09:49:32.000Z</time>
      </trkpt>
      <trkpt lat="44.84578" lon="0.67108">
        <ele>171</ele>
        <time>2014-04-20T09:49:36.000Z</time>
      </trkpt>
      <trkpt lat="44.84577" lon="0.67101">
        <ele>173</ele>
        <time>2014-04-20T09:49:38.000Z</time>
      </trkpt>
      <trkpt lat="44.84577" lon="0.67101">
        <ele>173</ele>
        <time>2014-04-20T09:49:42.000Z</time>
      </trkpt>
      <trkpt lat="44.84577" lon="0.67101">
        <ele>173</ele>
        <time>2014-04-20T09:49:44.000Z</time>
      </trkpt>
      <trkpt lat="44.84577" lon="0.67101">
        <ele>173</ele>
        <time>2014-04-20T09:49:46.000Z</time>
      </trkpt>
      <trkpt lat="44.84575" lon="0.6708">
        <ele>166</ele>
        <time>2014-04-20T09:49:52.000Z</time>
      </trkpt>
      <trkpt lat="44.84575" lon="0.6708">
        <ele>166</ele>
        <time>2014-04-20T09:49:54.000Z</time>
      </trkpt>
      <trkpt lat="44.84575" lon="0.6708">
        <ele>166</ele>
        <time>2014-04-20T09:49:56.000Z</time>
      </trkpt>
      <trkpt lat="44.84575" lon="0.6708">
        <ele>166</ele>
        <time>2014-04-20T09:49:58.000Z</time>
      </trkpt>
      <trkpt lat="44.84571" lon="0.67056">
        <ele>168</ele>
        <time>2014-04-20T09:50:04.000Z</time>
      </trkpt>
      <trkpt lat="44.8457" lon="0.67042">
        <ele>166</ele>
        <time>2014-04-20T09:50:06.000Z</time>
      </trkpt>
      <trkpt lat="44.84569" lon="0.67032">
        <ele>164</ele>
        <time>2014-04-20T09:50:08.000Z</time>
      </trkpt>
      <trkpt lat="44.8457" lon="0.67025">
        <ele>163</ele>
        <time>2014-04-20T09:50:10.000Z</time>
      </trkpt>
      <trkpt lat="44.8457" lon="0.67019">
        <ele>162</ele>
        <time>2014-04-20T09:50:12.000Z</time>
      </trkpt>
      <trkpt lat="44.84571" lon="0.66999">
        <ele>162</ele>
        <time>2014-04-20T09:50:16.000Z</time>
      </trkpt>
      <trkpt lat="44.84571" lon="0.66999">
        <ele>162</ele>
        <time>2014-04-20T09:50:18.000Z</time>
      </trkpt>
      <trkpt lat="44.84571" lon="0.66999">
        <ele>162</ele>
        <time>2014-04-20T09:50:20.000Z</time>
      </trkpt>
      <trkpt lat="44.84571" lon="0.66999">
        <ele>162</ele>
        <time>2014-04-20T09:50:22.000Z</time>
      </trkpt>
      <trkpt lat="44.84576" lon="0.66974">
        <ele>157</ele>
        <time>2014-04-20T09:50:26.000Z</time>
      </trkpt>
      <trkpt lat="44.8457" lon="0.66963">
        <ele>161</ele>
        <time>2014-04-20T09:50:30.000Z</time>
      </trkpt>
      <trkpt lat="44.8457" lon="0.66963">
        <ele>161</ele>
        <time>2014-04-20T09:50:34.000Z</time>
      </trkpt>
      <trkpt lat="44.8457" lon="0.66963">
        <ele>161</ele>
        <time>2014-04-20T09:50:36.000Z</time>
      </trkpt>
      <trkpt lat="44.8457" lon="0.66963">
        <ele>161</ele>
        <time>2014-04-20T09:50:38.000Z</time>
      </trkpt>
      <trkpt lat="44.8457" lon="0.66963">
        <ele>161</ele>
        <time>2014-04-20T09:50:40.000Z</time>
      </trkpt>
      <trkpt lat="44.8457" lon="0.66963">
        <ele>161</ele>
        <time>2014-04-20T09:50:42.000Z</time>
      </trkpt>
      <trkpt lat="44.84545" lon="0.66945">
        <ele>154</ele>
        <time>2014-04-20T09:50:48.000Z</time>
      </trkpt>
      <trkpt lat="44.84544" lon="0.6693">
        <ele>153</ele>
        <time>2014-04-20T09:50:54.000Z</time>
      </trkpt>
      <trkpt lat="44.84544" lon="0.6693">
        <ele>153</ele>
        <time>2014-04-20T09:50:58.000Z</time>
      </trkpt>
      <trkpt lat="44.84544" lon="0.6693">
        <ele>153</ele>
        <time>2014-04-20T09:51:00.000Z</time>
      </trkpt>
      <trkpt lat="44.84541" lon="0.66908">
        <ele>154</ele>
        <time>2014-04-20T09:51:04.000Z</time>
      </trkpt>
      <trkpt lat="44.84541" lon="0.66891">
        <ele>149</ele>
        <time>2014-04-20T09:51:10.000Z</time>
      </trkpt>
      <trkpt lat="44.84541" lon="0.66891">
        <ele>149</ele>
        <time>2014-04-20T09:51:12.000Z</time>
      </trkpt>
      <trkpt lat="44.84538" lon="0.66877">
        <ele>154</ele>
        <time>2014-04-20T09:51:16.000Z</time>
      </trkpt>
      <trkpt lat="44.84538" lon="0.66877">
        <ele>154</ele>
        <time>2014-04-20T09:51:22.000Z</time>
      </trkpt>
      <trkpt lat="44.84538" lon="0.66877">
        <ele>154</ele>
        <time>2014-04-20T09:51:24.000Z</time>
      </trkpt>
      <trkpt lat="44.84538" lon="0.66877">
        <ele>154</ele>
        <time>2014-04-20T09:51:26.000Z</time>
      </trkpt>
      <trkpt lat="44.84533" lon="0.6686">
        <ele>152</ele>
        <time>2014-04-20T09:51:30.000Z</time>
      </trkpt>
      <trkpt lat="44.84528" lon="0.66851">
        <ele>155</ele>
        <time>2014-04-20T09:51:32.000Z</time>
      </trkpt>
      <trkpt lat="44.84524" lon="0.66846">
        <ele>154</ele>
        <time>2014-04-20T09:51:34.000Z</time>
      </trkpt>
      <trkpt lat="44.84518" lon="0.66843">
        <ele>152</ele>
        <time>2014-04-20T09:51:38.000Z</time>
      </trkpt>
      <trkpt lat="44.84513" lon="0.66841">
        <ele>153</ele>
        <time>2014-04-20T09:51:40.000Z</time>
      </trkpt>
      <trkpt lat="44.84513" lon="0.66841">
        <ele>153</ele>
        <time>2014-04-20T09:51:42.000Z</time>
      </trkpt>
      <trkpt lat="44.84513" lon="0.66841">
        <ele>153</ele>
        <time>2014-04-20T09:51:44.000Z</time>
      </trkpt>
      <trkpt lat="44.84513" lon="0.66841">
        <ele>153</ele>
        <time>2014-04-20T09:51:46.000Z</time>
      </trkpt>
      <trkpt lat="44.84513" lon="0.66841">
        <ele>153</ele>
        <time>2014-04-20T09:51:48.000Z</time>
      </trkpt>
      <trkpt lat="44.845" lon="0.6684">
        <ele>147</ele>
        <time>2014-04-20T09:51:52.000Z</time>
      </trkpt>
      <trkpt lat="44.84492" lon="0.66839">
        <ele>148</ele>
        <time>2014-04-20T09:51:54.000Z</time>
      </trkpt>
      <trkpt lat="44.84492" lon="0.66839">
        <ele>148</ele>
        <time>2014-04-20T09:51:56.000Z</time>
      </trkpt>
      <trkpt lat="44.84492" lon="0.66839">
        <ele>148</ele>
        <time>2014-04-20T09:51:58.000Z</time>
      </trkpt>
      <trkpt lat="44.84492" lon="0.66839">
        <ele>148</ele>
        <time>2014-04-20T09:52:00.000Z</time>
      </trkpt>
      <trkpt lat="44.84478" lon="0.6684">
        <ele>149</ele>
        <time>2014-04-20T09:52:04.000Z</time>
      </trkpt>
      <trkpt lat="44.84469" lon="0.66842">
        <ele>148</ele>
        <time>2014-04-20T09:52:06.000Z</time>
      </trkpt>
      <trkpt lat="44.84463" lon="0.66841">
        <ele>147</ele>
        <time>2014-04-20T09:52:08.000Z</time>
      </trkpt>
      <trkpt lat="44.84457" lon="0.66842">
        <ele>147</ele>
        <time>2014-04-20T09:52:10.000Z</time>
      </trkpt>
      <trkpt lat="44.84452" lon="0.66842">
        <ele>147</ele>
        <time>2014-04-20T09:52:12.000Z</time>
      </trkpt>
      <trkpt lat="44.84443" lon="0.66842">
        <ele>147</ele>
        <time>2014-04-20T09:52:14.000Z</time>
      </trkpt>
      <trkpt lat="44.84433" lon="0.66842">
        <ele>150</ele>
        <time>2014-04-20T09:52:18.000Z</time>
      </trkpt>
      <trkpt lat="44.84433" lon="0.66842">
        <ele>150</ele>
        <time>2014-04-20T09:52:20.000Z</time>
      </trkpt>
      <trkpt lat="44.84433" lon="0.66842">
        <ele>150</ele>
        <time>2014-04-20T09:52:22.000Z</time>
      </trkpt>
      <trkpt lat="44.84433" lon="0.66842">
        <ele>150</ele>
        <time>2014-04-20T09:52:24.000Z</time>
      </trkpt>
      <trkpt lat="44.84433" lon="0.66842">
        <ele>150</ele>
        <time>2014-04-20T09:52:26.000Z</time>
      </trkpt>
      <trkpt lat="44.8441" lon="0.66845">
        <ele>149</ele>
        <time>2014-04-20T09:52:30.000Z</time>
      </trkpt>
      <trkpt lat="44.8441" lon="0.66845">
        <ele>149</ele>
        <time>2014-04-20T09:52:34.000Z</time>
      </trkpt>
      <trkpt lat="44.84398" lon="0.66846">
        <ele>147</ele>
        <time>2014-04-20T09:52:36.000Z</time>
      </trkpt>
      <trkpt lat="44.84385" lon="0.66845">
        <ele>147</ele>
        <time>2014-04-20T09:52:42.000Z</time>
      </trkpt>
      <trkpt lat="44.84385" lon="0.66845">
        <ele>147</ele>
        <time>2014-04-20T09:52:44.000Z</time>
      </trkpt>
      <trkpt lat="44.84369" lon="0.66846">
        <ele>147</ele>
        <time>2014-04-20T09:52:50.000Z</time>
      </trkpt>
      <trkpt lat="44.84358" lon="0.66848">
        <ele>145</ele>
        <time>2014-04-20T09:52:56.000Z</time>
      </trkpt>
      <trkpt lat="44.84358" lon="0.66848">
        <ele>145</ele>
        <time>2014-04-20T09:52:58.000Z</time>
      </trkpt>
      <trkpt lat="44.84345" lon="0.66845">
        <ele>147</ele>
        <time>2014-04-20T09:53:02.000Z</time>
      </trkpt>
      <trkpt lat="44.84345" lon="0.66845">
        <ele>147</ele>
        <time>2014-04-20T09:53:08.000Z</time>
      </trkpt>
      <trkpt lat="44.84345" lon="0.66845">
        <ele>147</ele>
        <time>2014-04-20T09:53:10.000Z</time>
      </trkpt>
      <trkpt lat="44.84345" lon="0.66845">
        <ele>147</ele>
        <time>2014-04-20T09:53:12.000Z</time>
      </trkpt>
      <trkpt lat="44.84322" lon="0.66842">
        <ele>149</ele>
        <time>2014-04-20T09:53:14.000Z</time>
      </trkpt>
      <trkpt lat="44.84312" lon="0.66839">
        <ele>147</ele>
        <time>2014-04-20T09:53:18.000Z</time>
      </trkpt>
      <trkpt lat="44.84306" lon="0.6683">
        <ele>150</ele>
        <time>2014-04-20T09:53:22.000Z</time>
      </trkpt>
      <trkpt lat="44.84301" lon="0.66818">
        <ele>146</ele>
        <time>2014-04-20T09:53:26.000Z</time>
      </trkpt>
      <trkpt lat="44.84301" lon="0.66818">
        <ele>146</ele>
        <time>2014-04-20T09:53:28.000Z</time>
      </trkpt>
      <trkpt lat="44.84301" lon="0.66818">
        <ele>146</ele>
        <time>2014-04-20T09:53:30.000Z</time>
      </trkpt>
      <trkpt lat="44.84301" lon="0.66818">
        <ele>146</ele>
        <time>2014-04-20T09:53:32.000Z</time>
      </trkpt>
      <trkpt lat="44.84301" lon="0.66818">
        <ele>146</ele>
        <time>2014-04-20T09:53:34.000Z</time>
      </trkpt>
      <trkpt lat="44.84301" lon="0.66818">
        <ele>146</ele>
        <time>2014-04-20T09:53:40.000Z</time>
      </trkpt>
    </trkseg>
  </trk>
</gpx>